createdAt,value
2017-04-24T06:12:10.169Z,983.5
2017-04-24T06:13:12.610Z,983.7
2017-04-24T06:14:15.158Z,983.7
2017-04-24T06:15:17.728Z,983.7
2017-04-24T06:16:20.130Z,983.6
2017-04-24T06:17:22.510Z,983.7
2017-04-24T06:18:24.933Z,983.3
2017-04-24T06:19:27.324Z,983.6
2017-04-24T06:20:29.887Z,983.6
2017-04-24T06:21:32.326Z,983.6
2017-04-24T06:22:34.735Z,983.6
2017-04-24T06:23:37.179Z,983.7
2017-04-24T06:24:40.205Z,983.5
2017-04-24T06:25:42.760Z,983.6
2017-04-24T06:26:45.135Z,983.6
2017-04-24T06:27:47.662Z,983.6
2017-04-24T06:28:50.118Z,983.7
2017-04-24T06:29:52.559Z,983.6
2017-04-24T06:30:55.181Z,983.6
2017-04-24T06:31:57.548Z,983.7
2017-04-24T06:32:59.912Z,983.4
2017-04-24T06:34:02.350Z,983.4
2017-04-24T06:35:04.797Z,983.5
2017-04-24T06:36:07.199Z,983.6
2017-04-24T06:37:09.765Z,983.3
2017-04-24T06:38:12.233Z,983.5
2017-04-24T06:39:14.642Z,983.5
2017-04-24T06:40:17.098Z,983.6
2017-04-24T06:41:19.585Z,983.6
2017-04-24T06:42:22.054Z,983.4
2017-04-24T06:43:24.529Z,983.3
2017-04-24T06:44:27.572Z,983.5
2017-04-24T06:45:30.044Z,983.5
2017-04-24T06:46:32.434Z,983.4
2017-04-24T06:47:34.920Z,983.5
2017-04-24T06:48:38.592Z,983.4
2017-04-24T06:49:41.289Z,983.3
2017-04-24T06:50:43.693Z,983.4
2017-04-24T06:51:46.071Z,983.3
2017-04-24T06:52:48.516Z,983.3
2017-04-24T06:53:50.950Z,983.3
2017-04-24T06:54:53.392Z,983.3
2017-04-24T06:55:55.790Z,983.2
2017-04-24T06:56:58.218Z,983.2
2017-04-24T06:58:00.629Z,982.9
2017-04-24T06:59:03.108Z,983.1
2017-04-24T07:00:05.710Z,983.2
2017-04-24T07:01:08.183Z,983.1
2017-04-24T07:02:10.637Z,983.2
2017-04-24T07:03:13.030Z,983.1
2017-04-24T07:04:15.601Z,983
2017-04-24T07:05:17.982Z,983
2017-04-24T07:06:21.426Z,983
2017-04-24T07:07:23.954Z,983
2017-04-24T07:08:26.415Z,983
2017-04-24T07:09:28.850Z,983
2017-04-24T07:10:31.251Z,982.9
2017-04-24T07:11:33.774Z,982.9
2017-04-24T07:12:36.259Z,982.9
2017-04-24T07:13:39.672Z,982.9
2017-04-24T07:14:42.105Z,982.8
2017-04-24T07:15:45.156Z,982.8
2017-04-24T07:16:48.150Z,982.7
2017-04-24T07:17:50.619Z,982.7
2017-04-24T07:18:53.070Z,982.5
2017-04-24T07:19:55.495Z,982.8
2017-04-24T07:20:57.922Z,982.7
2017-04-24T07:22:00.321Z,982.8
2017-04-24T07:23:03.092Z,982.7
2017-04-24T07:24:05.505Z,982.6
2017-04-24T07:25:07.956Z,982.7
2017-04-24T07:26:10.370Z,982.5
2017-04-24T07:27:12.797Z,982.6
2017-04-24T07:28:15.875Z,982.6
2017-04-24T07:29:19.235Z,982.6
2017-04-24T07:30:21.691Z,982.6
2017-04-24T07:31:24.117Z,982.6
2017-04-24T07:32:27.162Z,982.6
2017-04-24T07:33:29.648Z,982.6
2017-04-24T07:34:32.040Z,982.5
2017-04-24T07:35:35.072Z,982.5
2017-04-24T07:36:38.127Z,982.4
2017-04-24T07:37:41.183Z,982.5
2017-04-24T07:38:43.576Z,982.5
2017-04-24T07:39:46.600Z,982.3
2017-04-24T07:40:49.054Z,982.4
2017-04-24T07:41:51.505Z,982.1
2017-04-24T07:42:53.884Z,982.1
2017-04-24T07:43:56.284Z,982.3
2017-04-24T07:44:58.709Z,982.3
2017-04-24T07:46:01.221Z,982.2
2017-04-24T07:47:03.645Z,981.9
2017-04-24T07:48:07.011Z,982.2
2017-04-24T07:49:09.416Z,982.2
2017-04-24T07:50:11.807Z,982.1
2017-04-24T07:51:14.266Z,982.1
2017-04-24T07:52:16.693Z,982.1
2017-04-24T07:53:19.170Z,982
2017-04-24T07:54:22.700Z,982.1
2017-04-24T07:55:25.298Z,982.1
2017-04-24T07:56:27.915Z,982.1
2017-04-24T07:57:31.586Z,982
2017-04-24T07:58:34.083Z,982
2017-04-24T07:59:36.596Z,982
2017-04-24T08:00:39.048Z,981.9
2017-04-24T08:01:41.446Z,981.8
2017-04-24T08:02:43.797Z,981.9
2017-04-24T08:03:46.235Z,981.8
2017-04-24T08:04:48.723Z,981.7
2017-04-24T08:05:52.358Z,981.9
2017-04-24T08:06:54.870Z,981.8
2017-04-24T08:07:57.440Z,981.9
2017-04-24T08:08:59.831Z,981.8
2017-04-24T08:10:02.285Z,981.7
2017-04-24T08:11:04.786Z,981.7
2017-04-24T08:12:07.311Z,981.7
2017-04-24T08:13:09.772Z,981.8
2017-04-24T08:14:12.289Z,981.8
2017-04-24T08:15:14.790Z,981.8
2017-04-24T08:16:17.281Z,981.7
2017-04-24T08:17:19.757Z,981.7
2017-04-24T08:18:27.500Z,981.4
2017-04-24T08:19:29.960Z,981.7
2017-04-24T08:20:33.758Z,981.7
2017-04-24T08:21:36.192Z,981.7
2017-04-24T08:22:39.778Z,981.5
2017-04-24T08:23:42.232Z,981.5
2017-04-24T08:24:45.430Z,981.5
2017-04-24T08:25:47.902Z,981.6
2017-04-24T08:26:50.740Z,981.4
2017-04-24T08:27:53.202Z,981.5
2017-04-24T08:28:59.790Z,981.3
2017-04-24T08:30:02.237Z,981.5
2017-04-24T08:31:05.128Z,981.5
2017-04-24T08:32:07.623Z,981.5
2017-04-24T08:33:10.198Z,981.4
2017-04-24T08:34:13.128Z,981.5
2017-04-24T08:35:16.070Z,981.4
2017-04-24T08:36:18.534Z,981.2
2017-04-24T08:37:21.195Z,981.3
2017-04-24T08:38:23.688Z,981.4
2017-04-24T08:39:26.348Z,981.4
2017-04-24T08:40:28.870Z,981.3
2017-04-24T08:41:31.534Z,981.6
2017-04-24T08:42:34.558Z,981.4
2017-04-24T08:43:38.739Z,981.4
2017-04-24T08:44:41.172Z,981.3
2017-04-24T08:45:43.687Z,981.3
2017-04-24T08:46:46.125Z,981.2
2017-04-24T08:47:48.704Z,981.3
2017-04-24T08:48:51.188Z,981.2
2017-04-24T08:49:54.262Z,981.2
2017-04-24T08:50:56.817Z,981.1
2017-04-24T08:51:59.306Z,981.2
2017-04-24T08:53:01.774Z,981.3
2017-04-24T08:54:04.807Z,981
2017-04-24T08:55:07.275Z,981
2017-04-24T08:56:10.720Z,981.2
2017-04-24T08:57:13.210Z,981.1
2017-04-24T08:58:15.598Z,981.2
2017-04-24T08:59:18.075Z,981.1
2017-04-24T09:00:20.562Z,981.1
2017-04-24T09:01:23.000Z,980.8
2017-04-24T09:02:25.543Z,980.8
2017-04-24T09:03:28.013Z,981.1
2017-04-24T09:04:30.470Z,981.1
2017-04-24T09:05:32.937Z,981
2017-04-24T09:06:35.504Z,981
2017-04-24T09:07:37.982Z,980.9
2017-04-24T09:08:40.512Z,981
2017-04-24T09:09:43.001Z,980.9
2017-04-24T09:10:46.022Z,980.9
2017-04-24T09:11:48.433Z,981
2017-04-24T09:12:50.851Z,981
2017-04-24T09:13:53.252Z,980.8
2017-04-24T09:14:58.431Z,981
2017-04-24T09:16:00.831Z,980.9
2017-04-24T09:17:03.502Z,980.4
2017-04-24T09:18:05.932Z,980.9
2017-04-24T09:19:08.411Z,981
2017-04-24T09:20:10.881Z,980.7
2017-04-24T09:21:13.390Z,980.8
2017-04-24T09:22:16.026Z,981
2017-04-24T09:23:18.421Z,980.9
2017-04-24T09:24:20.842Z,980.9
2017-04-24T09:25:23.279Z,981
2017-04-24T09:26:25.725Z,980.9
2017-04-24T09:27:28.904Z,980.9
2017-04-24T09:28:31.343Z,981
2017-04-24T09:29:34.488Z,981
2017-04-24T09:30:36.964Z,980.9
2017-04-24T09:31:39.481Z,980.9
2017-04-24T09:32:42.023Z,980.8
2017-04-24T09:33:44.426Z,980.7
2017-04-24T09:34:46.812Z,980.5
2017-04-24T09:35:49.276Z,980.4
2017-04-24T09:36:51.830Z,980.4
2017-04-24T09:37:54.219Z,980.7
2017-04-24T09:38:56.931Z,980.6
2017-04-24T09:39:59.386Z,980.4
2017-04-24T09:41:01.887Z,980.3
2017-04-24T09:42:04.772Z,980.6
2017-04-24T09:43:07.211Z,980.6
2017-04-24T09:44:09.824Z,980.3
2017-04-24T09:45:12.553Z,980.3
2017-04-24T09:46:15.048Z,980.6
2017-04-24T09:47:17.457Z,980.6
2017-04-24T09:48:19.981Z,980.5
2017-04-24T09:49:22.480Z,980.3
2017-04-24T09:50:24.897Z,980.3
2017-04-24T09:51:27.422Z,980.5
2017-04-24T09:52:29.954Z,980.4
2017-04-24T09:53:32.423Z,980.5
2017-04-24T09:54:34.858Z,980.5
2017-04-24T09:55:37.469Z,980.5
2017-04-24T09:56:40.054Z,980.3
2017-04-24T09:57:42.557Z,980.2
2017-04-24T09:58:45.058Z,980.1
2017-04-24T09:59:47.490Z,980.3
2017-04-24T10:00:50.078Z,980.2
2017-04-24T10:01:52.524Z,980.1
2017-04-24T10:02:55.027Z,980.2
2017-04-24T10:03:57.473Z,980.2
2017-04-24T10:05:00.799Z,980.2
2017-04-24T10:06:03.334Z,980.2
2017-04-24T10:07:06.085Z,980.3
2017-04-24T10:08:09.023Z,980.3
2017-04-24T10:09:11.426Z,980.2
2017-04-24T10:10:14.043Z,980.3
2017-04-24T10:11:16.631Z,980.2
2017-04-24T10:12:20.265Z,980
2017-04-24T10:13:22.825Z,980
2017-04-24T10:14:25.341Z,980.2
2017-04-24T10:15:27.956Z,980.1
2017-04-24T10:16:30.468Z,980.2
2017-04-24T10:17:32.986Z,980.3
2017-04-24T10:18:35.443Z,979.7
2017-04-24T10:19:37.974Z,980.1
2017-04-24T10:20:40.493Z,980
2017-04-24T10:21:43.024Z,980.1
2017-04-24T10:22:45.539Z,980
2017-04-24T10:23:48.035Z,980
2017-04-24T10:24:50.530Z,979.8
2017-04-24T10:25:53.210Z,980
2017-04-24T10:26:55.690Z,980
2017-04-24T10:27:58.751Z,979.9
2017-04-24T10:29:01.259Z,979.9
2017-04-24T10:30:03.906Z,979.9
2017-04-24T10:31:07.476Z,979.9
2017-04-24T10:32:09.961Z,979.9
2017-04-24T10:33:13.551Z,979.8
2017-04-24T10:34:16.050Z,979.8
2017-04-24T10:35:18.574Z,979.4
2017-04-24T10:36:21.137Z,979.7
2017-04-24T10:37:24.357Z,979.7
2017-04-24T10:38:28.674Z,979.7
2017-04-24T10:39:31.176Z,979.7
2017-04-24T10:40:34.275Z,979.7
2017-04-24T10:41:36.894Z,979.7
2017-04-24T10:42:39.546Z,979.7
2017-04-24T10:43:42.575Z,979.6
2017-04-24T10:44:45.134Z,979.6
2017-04-24T10:45:47.673Z,979.6
2017-04-24T10:46:50.341Z,979.6
2017-04-24T10:47:53.416Z,979.5
2017-04-24T10:48:56.531Z,979.6
2017-04-24T10:49:58.994Z,979.6
2017-04-24T10:51:01.615Z,979.5
2017-04-24T10:52:04.199Z,979.6
2017-04-24T10:53:06.705Z,979.3
2017-04-24T10:54:09.183Z,979.5
2017-04-24T10:55:11.809Z,979.6
2017-04-24T10:56:14.387Z,979.5
2017-04-24T10:57:16.845Z,979.5
2017-04-24T10:58:19.412Z,979.5
2017-04-24T10:59:21.952Z,979.5
2017-04-24T11:00:24.449Z,979.5
2017-04-24T11:01:26.921Z,979.5
2017-04-24T11:02:29.518Z,979.3
2017-04-24T11:03:31.949Z,979.5
2017-04-24T11:04:34.406Z,979.5
2017-04-24T11:05:37.555Z,979.4
2017-04-24T11:06:40.153Z,979.3
2017-04-24T11:07:42.864Z,979.2
2017-04-24T11:08:45.981Z,979.4
2017-04-24T11:09:48.500Z,979.3
2017-04-24T11:10:51.571Z,979
2017-04-24T11:11:54.099Z,979.3
2017-04-24T11:12:56.621Z,979.2
2017-04-24T11:13:59.153Z,979.2
2017-04-24T11:15:03.143Z,979.2
2017-04-24T11:16:05.728Z,979.2
2017-04-24T11:17:08.188Z,979.1
2017-04-24T11:18:11.001Z,979.2
2017-04-24T11:19:13.560Z,979.2
2017-04-24T11:20:16.173Z,979.2
2017-04-24T11:21:19.941Z,979.2
2017-04-24T11:22:23.105Z,979.2
2017-04-24T11:23:25.529Z,979.1
2017-04-24T11:24:28.166Z,979.1
2017-04-24T11:25:33.383Z,979.2
2017-04-24T11:26:36.579Z,979.1
2017-04-24T11:27:39.054Z,979.1
2017-04-24T11:28:42.470Z,979.1
2017-04-24T11:29:45.639Z,979
2017-04-24T11:30:48.216Z,979
2017-04-24T11:31:50.726Z,979
2017-04-24T11:32:54.115Z,978.9
2017-04-24T11:33:56.567Z,979
2017-04-24T11:34:59.373Z,978.9
2017-04-24T11:36:02.428Z,978.9
2017-04-24T11:37:05.334Z,978.6
2017-04-24T11:38:07.847Z,978.5
2017-04-24T11:39:10.769Z,978.7
2017-04-24T11:40:13.269Z,978.8
2017-04-24T11:41:15.770Z,978.7
2017-04-24T11:42:18.214Z,978.8
2017-04-24T11:43:21.363Z,978.8
2017-04-24T11:44:25.329Z,978.8
2017-04-24T11:45:28.318Z,978.7
2017-04-24T11:46:30.785Z,978.6
2017-04-24T11:47:33.295Z,978.3
2017-04-24T11:48:36.339Z,978.6
2017-04-24T11:49:38.831Z,978.6
2017-04-24T11:50:42.532Z,978.6
2017-04-24T11:51:45.032Z,978.7
2017-04-24T11:52:47.493Z,978.6
2017-04-24T11:53:49.975Z,978.5
2017-04-24T11:54:53.336Z,978.6
2017-04-24T11:55:56.413Z,978.6
2017-04-24T11:56:59.676Z,978.6
2017-04-24T11:58:02.170Z,978.6
2017-04-24T11:59:04.636Z,978.6
2017-04-24T12:00:07.017Z,978.6
2017-04-24T12:01:09.842Z,978.4
2017-04-24T12:02:12.697Z,978.6
2017-04-24T12:03:15.731Z,978.3
2017-04-24T12:04:20.251Z,978.5
2017-04-24T12:05:23.250Z,978.4
2017-04-24T12:06:25.717Z,978.5
2017-04-24T12:07:29.787Z,978.4
2017-04-24T12:08:32.547Z,978.3
2017-04-24T12:09:38.853Z,977.9
2017-04-24T12:10:41.377Z,978.3
2017-04-24T12:11:44.605Z,978.3
2017-04-24T12:12:47.177Z,978.4
2017-04-24T12:13:49.799Z,978.4
2017-04-24T12:14:53.202Z,978.4
2017-04-24T12:15:56.545Z,978.1
2017-04-24T12:16:59.631Z,978.1
2017-04-24T12:18:02.119Z,978.2
2017-04-24T12:19:04.557Z,978
2017-04-24T12:20:09.092Z,978.3
2017-04-24T12:21:11.518Z,978.3
2017-04-24T12:22:14.133Z,978.4
2017-04-24T12:23:16.658Z,978.3
2017-04-24T12:24:19.935Z,978.3
2017-04-24T12:25:22.334Z,978.2
2017-04-24T12:26:24.819Z,978.3
2017-04-24T12:27:28.194Z,978
2017-04-24T12:28:30.710Z,978.2
2017-04-24T12:29:33.258Z,978.2
2017-04-24T12:30:35.700Z,978.1
2017-04-24T12:31:38.661Z,978.1
2017-04-24T12:32:42.566Z,978
2017-04-24T12:33:45.068Z,978
2017-04-24T12:34:47.546Z,978.1
2017-04-24T12:35:50.001Z,978.1
2017-04-24T12:36:53.193Z,978
2017-04-24T12:37:59.590Z,978
2017-04-24T12:39:02.150Z,978
2017-04-24T12:40:05.860Z,977.7
2017-04-24T12:41:09.938Z,977.7
2017-04-24T12:42:12.372Z,977.9
2017-04-24T12:43:15.460Z,977.7
2017-04-24T12:44:17.925Z,977.8
2017-04-24T12:45:20.433Z,977.8
2017-04-24T12:46:22.827Z,977.8
2017-04-24T12:47:26.564Z,977.6
2017-04-24T12:48:29.060Z,977.8
2017-04-24T12:49:32.763Z,977.8
2017-04-24T12:50:35.224Z,977.8
2017-04-24T12:51:43.072Z,977.7
2017-04-24T12:52:52.725Z,977.6
2017-04-24T12:53:58.258Z,977.6
2017-04-24T12:55:00.798Z,977.6
2017-04-24T12:56:03.941Z,977.5
2017-04-24T12:57:06.352Z,977.6
2017-04-24T12:58:09.459Z,977.6
2017-04-24T12:59:12.247Z,977.6
2017-04-24T13:00:15.785Z,977.5
2017-04-24T13:01:18.220Z,977.6
2017-04-24T13:02:21.278Z,977.6
2017-04-24T13:03:23.779Z,977.4
2017-04-24T13:04:27.343Z,977.4
2017-04-24T13:05:30.053Z,977.5
2017-04-24T13:06:32.555Z,977.5
2017-04-24T13:07:35.081Z,977.4
2017-04-24T13:08:37.676Z,977.4
2017-04-24T13:09:41.526Z,977.4
2017-04-24T13:10:44.587Z,977.3
2017-04-24T13:11:48.344Z,977.2
2017-04-24T13:12:52.603Z,977.3
2017-04-24T13:13:55.174Z,977.3
2017-04-24T13:15:05.061Z,977
2017-04-24T13:16:08.299Z,977.3
2017-04-24T13:17:11.949Z,977
2017-04-24T13:18:14.452Z,977.2
2017-04-24T13:19:18.474Z,977.2
2017-04-24T13:20:21.554Z,977.2
2017-04-24T13:21:23.936Z,977.1
2017-04-24T13:22:27.779Z,977.1
2017-04-24T13:23:34.227Z,977.1
2017-04-24T13:24:36.739Z,977.1
2017-04-24T13:25:50.169Z,977.1
2017-04-24T13:26:53.860Z,977.1
2017-04-24T13:27:56.359Z,977.1
2017-04-24T13:28:59.766Z,977
2017-04-24T13:30:02.222Z,977
2017-04-24T13:31:05.758Z,977.1
2017-04-24T13:32:09.010Z,977.1
2017-04-24T13:33:12.691Z,977
2017-04-24T13:34:16.354Z,977
2017-04-24T13:35:21.188Z,976.8
2017-04-24T13:36:23.664Z,977
2017-04-24T13:37:26.210Z,977
2017-04-24T13:38:28.741Z,976.9
2017-04-24T13:39:33.765Z,977
2017-04-24T13:40:36.957Z,977
2017-04-24T13:41:39.472Z,976.9
2017-04-24T13:42:42.026Z,976.9
2017-04-24T13:43:48.280Z,976.9
2017-04-24T13:44:53.032Z,976.9
2017-04-24T13:45:55.906Z,976.9
2017-04-24T13:46:59.040Z,976.8
2017-04-24T13:48:02.221Z,976.8
2017-04-24T13:49:05.745Z,976.8
2017-04-24T13:50:08.505Z,976.5
2017-04-24T13:51:11.057Z,976.7
2017-04-24T13:52:15.254Z,976.4
2017-04-24T13:53:18.027Z,976.5
2017-04-24T13:54:21.597Z,976.6
2017-04-24T13:55:24.672Z,976.6
2017-04-24T13:56:27.954Z,976.7
2017-04-24T13:57:30.457Z,976.6
2017-04-24T13:58:33.498Z,976.6
2017-04-24T13:59:36.100Z,976.6
2017-04-24T14:00:39.166Z,976.5
2017-04-24T14:01:41.622Z,976.7
2017-04-24T14:02:44.558Z,976.6
2017-04-24T14:03:47.093Z,976.5
2017-04-24T14:04:50.365Z,976.3
2017-04-24T14:05:54.095Z,976.5
2017-04-24T14:06:57.476Z,976.5
2017-04-24T14:08:00.017Z,976.5
2017-04-24T14:09:02.850Z,976.5
2017-04-24T14:10:05.329Z,976.5
2017-04-24T14:11:08.074Z,976.5
2017-04-24T14:12:10.879Z,976.5
2017-04-24T14:13:13.732Z,976.5
2017-04-24T14:14:17.250Z,976.4
2017-04-24T14:15:19.872Z,976.4
2017-04-24T14:16:22.988Z,976.4
2017-04-24T14:17:25.772Z,976.4
2017-04-24T14:18:28.302Z,976.4
2017-04-24T14:19:30.880Z,976.4
2017-04-24T14:20:33.320Z,976.2
2017-04-24T14:21:35.841Z,976.3
2017-04-24T14:22:38.336Z,976.4
2017-04-24T14:23:40.838Z,976.3
2017-04-24T14:24:43.997Z,976.4
2017-04-24T14:25:47.498Z,976.3
2017-04-24T14:26:50.624Z,976.3
2017-04-24T14:27:52.986Z,976.3
2017-04-24T14:28:55.695Z,976.3
2017-04-24T14:29:58.302Z,976.3
2017-04-24T14:31:00.757Z,976.2
2017-04-24T14:32:03.862Z,976.2
2017-04-24T14:33:07.666Z,976.2
2017-04-24T14:34:11.463Z,976.2
2017-04-24T14:35:14.568Z,976
2017-04-24T14:36:18.242Z,976.2
2017-04-24T14:38:32.772Z,975.9
2017-04-24T14:39:35.858Z,976.2
2017-04-24T14:40:38.905Z,976.1
2017-04-24T14:41:43.431Z,976.1
2017-04-24T14:42:47.234Z,976.1
2017-04-24T14:43:50.345Z,976
2017-04-24T14:44:53.413Z,975.8
2017-04-24T14:45:55.932Z,976
2017-04-24T14:47:07.674Z,976
2017-04-24T14:48:10.680Z,976
2017-04-24T14:49:13.774Z,976.1
2017-04-24T14:50:16.258Z,976.1
2017-04-24T14:51:18.831Z,976.1
2017-04-24T14:52:22.302Z,976.1
2017-04-24T14:53:28.972Z,976
2017-04-24T14:54:33.641Z,976
2017-04-24T14:55:38.019Z,976
2017-04-24T14:56:41.154Z,976
2017-04-24T14:57:43.631Z,975.9
2017-04-24T14:58:46.112Z,975.9
2017-04-24T14:59:49.616Z,975.9
2017-04-24T15:00:52.114Z,975.9
2017-04-24T15:01:55.227Z,975.8
2017-04-24T15:02:57.764Z,975.9
2017-04-24T15:04:02.188Z,975.9
2017-04-24T15:05:04.780Z,975.7
2017-04-24T15:06:09.316Z,975.8
2017-04-24T15:07:11.712Z,975.8
2017-04-24T15:08:15.601Z,975.8
2017-04-24T15:09:18.060Z,975.8
2017-04-24T15:10:22.270Z,975.8
2017-04-24T15:11:25.443Z,975.8
2017-04-24T15:12:28.216Z,975.7
2017-04-24T15:13:30.763Z,975.7
2017-04-24T15:14:33.267Z,975.7
2017-04-24T15:15:37.296Z,975.7
2017-04-24T15:16:40.421Z,975.5
2017-04-24T15:17:45.512Z,975.7
2017-04-24T15:18:48.608Z,975.7
2017-04-24T15:19:54.599Z,975.6
2017-04-24T15:20:59.357Z,975.5
2017-04-24T15:22:03.159Z,975.6
2017-04-24T15:23:06.980Z,975.6
2017-04-24T15:24:11.109Z,975.7
2017-04-24T15:25:15.194Z,975.6
2017-04-24T15:26:17.744Z,975.6
2017-04-24T15:27:20.798Z,975.6
2017-04-24T15:28:24.378Z,975.4
2017-04-24T15:29:26.907Z,975.6
2017-04-24T15:30:29.453Z,975.5
2017-04-24T15:31:34.145Z,975.5
2017-04-24T15:32:38.209Z,975.3
2017-04-24T15:33:43.466Z,975.3
2017-04-24T15:34:47.152Z,975.3
2017-04-24T15:35:51.598Z,975.5
2017-04-24T15:36:55.303Z,975.4
2017-04-24T15:37:59.758Z,975.5
2017-04-24T15:39:02.419Z,975.4
2017-04-24T15:40:07.353Z,975.4
2017-04-24T15:41:10.395Z,975.4
2017-04-24T15:42:12.889Z,975.2
2017-04-24T15:43:15.815Z,975.5
2017-04-24T15:44:18.312Z,975.4
2017-04-24T15:45:22.061Z,975.4
2017-04-24T15:46:25.974Z,975.4
2017-04-24T15:47:31.154Z,975.3
2017-04-24T15:48:34.699Z,975.1
2017-04-24T15:49:37.326Z,975.4
2017-04-24T15:50:40.324Z,975.4
2017-04-24T15:51:43.574Z,975.3
2017-04-24T15:52:47.753Z,975.3
2017-04-24T15:53:50.344Z,975.3
2017-04-24T15:54:55.074Z,975.3
2017-04-24T15:55:57.699Z,975.2
2017-04-24T15:57:00.396Z,975.3
2017-04-24T15:58:03.709Z,975.3
2017-04-24T15:59:08.424Z,975.3
2017-04-24T16:00:13.071Z,975.3
2017-04-24T16:01:15.862Z,975.1
2017-04-24T16:02:19.366Z,975.3
2017-04-24T16:03:21.926Z,975.2
2017-04-24T16:04:25.038Z,975.3
2017-04-24T16:05:27.626Z,975.3
2017-04-24T16:06:32.228Z,975.3
2017-04-24T16:07:35.477Z,975.1
2017-04-24T16:08:39.342Z,975.2
2017-04-24T16:09:42.442Z,975.2
2017-04-24T16:10:45.643Z,975.2
2017-04-24T16:11:51.569Z,975.2
2017-04-24T16:12:54.784Z,975.3
2017-04-24T16:13:59.853Z,975.2
2017-04-24T16:15:10.639Z,975.1
2017-04-24T16:16:15.405Z,975.2
2017-04-24T16:17:17.981Z,975.1
2017-04-24T16:18:21.832Z,975.1
2017-04-24T16:19:25.191Z,975
2017-04-24T16:20:28.212Z,975
2017-04-24T16:21:35.193Z,975.1
2017-04-24T16:22:37.739Z,975
2017-04-24T16:23:40.425Z,975
2017-04-24T16:24:44.074Z,975
2017-04-24T16:25:46.687Z,975
2017-04-24T16:26:50.285Z,975
2017-04-24T16:27:53.869Z,975
2017-04-24T16:28:58.357Z,974.9
2017-04-24T16:30:04.595Z,974.9
2017-04-24T16:31:07.970Z,974.9
2017-04-24T16:32:12.140Z,974.9
2017-04-24T16:33:15.427Z,974.9
2017-04-24T16:34:17.938Z,974.9
2017-04-24T16:35:21.130Z,975
2017-04-24T16:36:27.196Z,975
2017-04-24T16:37:30.825Z,975
2017-04-24T16:38:35.514Z,974.9
2017-04-24T16:39:40.920Z,974.9
2017-04-24T16:40:47.432Z,974.9
2017-04-24T16:41:50.661Z,974.9
2017-04-24T16:42:54.765Z,974.9
2017-04-24T16:43:57.772Z,974.9
2017-04-24T16:45:06.868Z,974.9
2017-04-24T16:46:09.375Z,974.9
2017-04-24T16:47:11.955Z,974.9
2017-04-24T16:48:14.579Z,974.8
2017-04-24T16:49:19.619Z,974.9
2017-04-24T16:50:22.137Z,974.9
2017-04-24T16:51:26.180Z,974.9
2017-04-24T16:52:28.957Z,974.8
2017-04-24T16:53:32.769Z,974.8
2017-04-24T16:54:35.941Z,974.7
2017-04-24T16:55:39.617Z,974.8
2017-04-24T16:56:42.163Z,974.6
2017-04-24T16:57:45.350Z,974.9
2017-04-24T16:58:48.043Z,974.8
2017-04-24T16:59:50.871Z,974.6
2017-04-24T17:00:53.623Z,974.6
2017-04-24T17:01:56.014Z,974.8
2017-04-24T17:02:59.525Z,974.8
2017-04-24T17:04:02.635Z,974.8
2017-04-24T17:05:05.124Z,974.9
2017-04-24T17:06:09.303Z,974.8
2017-04-24T17:07:12.601Z,974.8
2017-04-24T17:08:16.493Z,974.8
2017-04-24T17:09:19.042Z,974.8
2017-04-24T17:10:23.464Z,974.8
2017-04-24T17:11:26.556Z,974.5
2017-04-24T17:12:29.106Z,974.8
2017-04-24T17:13:31.534Z,974.5
2017-04-24T17:14:34.321Z,974.6
2017-04-24T17:15:37.526Z,974.7
2017-04-24T17:16:42.332Z,974.8
2017-04-24T17:17:45.465Z,974.8
2017-04-24T17:18:49.926Z,974.5
2017-04-24T17:19:52.469Z,974.7
2017-04-24T17:20:56.245Z,974.7
2017-04-24T17:21:59.606Z,974.8
2017-04-24T17:23:06.007Z,974.7
2017-04-24T17:24:10.571Z,974.7
2017-04-24T17:25:15.838Z,974.7
2017-04-24T17:26:19.032Z,974.6
2017-04-24T17:27:22.758Z,974.7
2017-04-24T17:28:25.976Z,974.6
2017-04-24T17:29:29.310Z,974.6
2017-04-24T17:30:34.974Z,974.6
2017-04-24T17:31:38.482Z,974.6
2017-04-24T17:32:43.613Z,974.6
2017-04-24T17:33:48.043Z,974.5
2017-04-24T17:34:51.157Z,974.5
2017-04-24T17:35:55.196Z,974.5
2017-04-24T17:36:58.300Z,974.5
2017-04-24T17:38:01.791Z,974.5
2017-04-24T17:39:06.298Z,974.5
2017-04-24T17:40:11.992Z,974.5
2017-04-24T17:41:17.934Z,974.5
2017-04-24T17:42:24.161Z,974.4
2017-04-24T17:43:28.152Z,974.4
2017-04-24T17:44:33.215Z,974.5
2017-04-24T17:45:35.776Z,974.4
2017-04-24T17:46:38.837Z,974.4
2017-04-24T17:47:41.322Z,974.4
2017-04-24T17:48:43.782Z,974.4
2017-04-24T17:49:46.381Z,974.4
2017-04-24T17:50:48.881Z,974.4
2017-04-24T17:51:52.411Z,974.4
2017-04-24T17:52:55.119Z,974.4
2017-04-24T17:53:57.634Z,974.4
2017-04-24T17:55:00.160Z,974.4
2017-04-24T17:56:04.317Z,974.3
2017-04-24T17:58:22.895Z,974.4
2017-04-24T18:00:57.621Z,974.1
2017-04-24T18:02:01.013Z,974.3
2017-04-24T18:03:04.114Z,974.3
2017-04-24T18:04:06.931Z,974.4
2017-04-24T18:05:10.941Z,974.3
2017-04-24T18:06:13.436Z,974.4
2017-04-24T18:07:15.885Z,974.1
2017-04-24T18:08:19.992Z,974.3
2017-04-24T18:09:23.499Z,974.2
2017-04-24T18:10:25.960Z,974.2
2017-04-24T18:11:28.504Z,974.2
2017-04-24T18:12:32.405Z,974.2
2017-04-24T18:13:34.980Z,974.2
2017-04-24T18:14:39.024Z,974.1
2017-04-24T18:15:41.508Z,973.9
2017-04-24T18:16:44.794Z,974.1
2017-04-24T18:17:47.216Z,974.2
2017-04-24T18:18:50.894Z,973.8
2017-04-24T18:19:53.365Z,974.1
2017-04-24T18:20:58.501Z,974.1
2017-04-24T18:22:03.295Z,974.1
2017-04-24T18:23:05.879Z,974.1
2017-04-24T18:24:08.417Z,974
2017-04-24T18:25:12.155Z,974.1
2017-04-24T18:26:14.574Z,974.1
2017-04-24T18:27:17.064Z,974.1
2017-04-24T18:28:20.470Z,974.1
2017-04-24T18:29:23.616Z,974.1
2017-04-24T18:30:27.709Z,974
2017-04-24T18:31:32.004Z,974
2017-04-24T18:32:34.462Z,973.9
2017-04-24T18:33:36.988Z,974.1
2017-04-24T18:34:40.074Z,974.1
2017-04-24T18:35:42.571Z,974.1
2017-04-24T18:36:45.691Z,974
2017-04-24T18:37:48.219Z,974
2017-04-24T18:38:50.832Z,974
2017-04-24T18:39:53.277Z,974
2017-04-24T18:40:57.048Z,974
2017-04-24T18:42:00.600Z,974
2017-04-24T18:43:03.097Z,974
2017-04-24T18:44:05.514Z,974
2017-04-24T18:45:08.541Z,974
2017-04-24T18:46:10.998Z,974
2017-04-24T18:47:13.395Z,974
2017-04-24T18:48:16.368Z,974
2017-04-24T18:49:18.865Z,973.8
2017-04-24T18:50:23.513Z,973.9
2017-04-24T18:51:29.616Z,974
2017-04-24T18:52:32.082Z,973.9
2017-04-24T18:53:36.268Z,973.9
2017-04-24T18:54:39.389Z,973.9
2017-04-24T18:55:42.960Z,973.9
2017-04-24T18:56:45.398Z,973.9
2017-04-24T18:57:47.934Z,973.9
2017-04-24T18:58:50.324Z,973.9
2017-04-24T18:59:53.480Z,973.8
2017-04-24T19:00:55.948Z,973.8
2017-04-24T19:01:58.581Z,973.9
2017-04-24T19:03:01.065Z,973.8
2017-04-24T19:04:04.367Z,973.7
2017-04-24T19:05:07.841Z,973.8
2017-04-24T19:06:10.500Z,973.8
2017-04-24T19:07:12.956Z,973.8
2017-04-24T19:08:15.455Z,973.8
2017-04-24T19:09:17.954Z,973.8
2017-04-24T19:10:20.395Z,973.8
2017-04-24T19:11:24.061Z,973.7
2017-04-24T19:12:26.469Z,973.8
2017-04-24T19:13:28.969Z,973.8
2017-04-24T19:14:32.056Z,973.7
2017-04-24T19:15:35.788Z,973.7
2017-04-24T19:16:41.442Z,973.5
2017-04-24T19:17:46.444Z,973.7
2017-04-24T19:18:50.914Z,973.7
2017-04-24T19:19:54.239Z,973.6
2017-04-24T19:20:57.235Z,973.7
2017-04-24T19:22:00.430Z,973.6
2017-04-24T19:23:02.978Z,973.7
2017-04-24T19:24:05.455Z,973.7
2017-04-24T19:25:07.944Z,973.6
2017-04-24T19:26:11.321Z,973.7
2017-04-24T19:27:14.613Z,973.6
2017-04-24T19:28:17.063Z,973.6
2017-04-24T19:29:20.269Z,973.6
2017-04-24T19:30:22.881Z,973.6
2017-04-24T19:31:25.370Z,973.5
2017-04-24T19:32:28.666Z,973.6
2017-04-24T19:33:32.118Z,973.6
2017-04-24T19:34:36.266Z,973.6
2017-04-24T19:35:39.671Z,973.6
2017-04-24T19:36:43.659Z,973.6
2017-04-24T19:37:47.445Z,973.6
2017-04-24T19:38:49.941Z,973.6
2017-04-24T19:39:55.609Z,973.5
2017-04-24T19:40:59.086Z,973.5
2017-04-24T19:42:01.534Z,973.5
2017-04-24T19:43:04.032Z,973.5
2017-04-24T19:44:07.543Z,973.5
2017-04-24T19:45:10.425Z,973.5
2017-04-24T19:46:13.599Z,973.5
2017-04-24T19:47:16.088Z,973.5
2017-04-24T19:48:22.096Z,973.5
2017-04-24T19:49:26.876Z,973.5
2017-04-24T19:50:30.752Z,973.4
2017-04-24T19:51:33.319Z,973.4
2017-04-24T19:52:36.456Z,973.4
2017-04-24T19:53:39.531Z,973.4
2017-04-24T19:54:42.004Z,973.4